createdAt,value
2022-12-28T00:02:19.316Z,87.70
2022-12-28T00:04:48.205Z,88.08
2022-12-28T00:07:16.619Z,88.05
2022-12-28T00:09:45.091Z,88.09
2022-12-28T00:12:13.413Z,88.47
2022-12-28T00:14:41.714Z,88.38
2022-12-28T00:17:10.222Z,88.52
2022-12-28T00:19:38.608Z,88.71
2022-12-28T00:22:06.934Z,88.74
2022-12-28T00:24:35.961Z,88.94
2022-12-28T00:27:04.291Z,88.71
2022-12-28T00:29:32.644Z,88.70
2022-12-28T00:32:01.071Z,89.52
2022-12-28T00:34:29.454Z,89.81
2022-12-28T00:37:08.433Z,89.12
2022-12-28T00:39:41.880Z,89.13
2022-12-28T00:42:10.736Z,89.51
2022-12-28T00:44:39.138Z,89.02
2022-12-28T00:47:07.635Z,88.84
2022-12-28T00:49:35.996Z,88.51
2022-12-28T00:52:04.357Z,88.08
2022-12-28T00:54:32.719Z,87.49
2022-12-28T00:57:01.023Z,86.72
2022-12-28T00:59:29.360Z,86.43
2022-12-28T01:01:57.805Z,86.06
2022-12-28T01:04:26.191Z,84.00
2022-12-28T01:06:54.510Z,83.31
2022-12-28T01:09:22.810Z,82.24
2022-12-28T01:11:51.212Z,82.19
2022-12-28T01:14:19.543Z,82.25
2022-12-28T01:16:47.956Z,81.92
2022-12-28T01:19:22.215Z,81.70
2022-12-28T01:21:52.125Z,80.29
2022-12-28T01:24:20.570Z,78.91
2022-12-28T01:26:48.879Z,78.55
2022-12-28T01:29:18.622Z,77.81
2022-12-28T01:31:47.032Z,77.10
2022-12-28T01:34:15.818Z,77.55
2022-12-28T01:36:44.266Z,77.84
2022-12-28T01:39:13.294Z,76.62
2022-12-28T01:41:43.615Z,75.86
2022-12-28T01:44:12.308Z,74.59
2022-12-28T01:47:02.094Z,73.18
2022-12-28T01:49:46.282Z,73.43
2022-12-28T01:52:29.593Z,72.46
2022-12-28T01:55:18.896Z,73.12
2022-12-28T01:57:53.541Z,71.98
2022-12-28T02:00:22.454Z,72.13
2022-12-28T02:02:59.067Z,72.11
2022-12-28T02:05:32.436Z,72.19
2022-12-28T02:08:25.576Z,71.76
2022-12-28T02:10:55.327Z,71.68
2022-12-28T02:13:26.129Z,70.54
2022-12-28T02:15:54.518Z,70.91
2022-12-28T02:18:26.259Z,70.72
2022-12-28T02:21:19.707Z,70.28
2022-12-28T02:24:18.387Z,69.83
2022-12-28T02:26:58.893Z,69.09
2022-12-28T02:29:50.095Z,68.73
2022-12-28T02:32:43.310Z,68.35
2022-12-28T02:35:39.267Z,69.08
2022-12-28T02:38:29.248Z,69.00
2022-12-28T02:41:14.017Z,69.04
2022-12-28T02:43:42.433Z,68.11
2022-12-28T02:46:36.199Z,68.40
2022-12-28T02:49:38.746Z,67.91
2022-12-28T02:52:15.904Z,66.89
2022-12-28T02:55:30.844Z,65.11
2022-12-28T02:58:08.263Z,66.65
2022-12-28T03:01:04.503Z,66.96
2022-12-28T03:03:47.935Z,66.86
2022-12-28T03:06:58.672Z,65.93
2022-12-28T03:09:46.296Z,66.02
2022-12-28T03:12:24.526Z,65.78
2022-12-28T03:15:35.308Z,65.49
2022-12-28T03:18:32.306Z,65.99
2022-12-28T03:21:24.569Z,65.81
2022-12-28T03:24:13.858Z,65.22
2022-12-28T03:27:06.594Z,65.09
2022-12-28T03:29:59.874Z,64.90
2022-12-28T03:32:28.608Z,64.10
2022-12-28T03:34:56.975Z,63.39
2022-12-28T03:37:33.474Z,64.23
2022-12-28T03:40:37.370Z,64.29
2022-12-28T03:43:34.677Z,63.06
2022-12-28T03:46:12.341Z,62.26
2022-12-28T03:48:41.746Z,63.03
2022-12-28T03:51:10.626Z,60.84
2022-12-28T03:53:43.957Z,60.76
2022-12-28T03:56:17.840Z,61.22
2022-12-28T03:58:46.789Z,62.29
2022-12-28T04:01:15.690Z,61.35
2022-12-28T04:03:44.700Z,61.24
2022-12-28T04:06:18.721Z,59.93
2022-12-28T04:08:48.500Z,58.63
2022-12-28T04:11:16.896Z,57.81
2022-12-28T04:13:45.481Z,59.55
2022-12-28T04:16:15.853Z,58.02
2022-12-28T04:18:44.637Z,58.05
2022-12-28T04:21:14.881Z,57.76
2022-12-28T04:23:44.461Z,60.56
2022-12-28T04:26:14.920Z,58.43
2022-12-28T04:28:43.746Z,57.57
2022-12-28T04:31:15.025Z,56.28
2022-12-28T04:33:43.420Z,57.09
2022-12-28T04:36:11.939Z,58.40
2022-12-28T04:38:40.637Z,56.74
2022-12-28T04:41:11.735Z,59.48
2022-12-28T04:43:41.211Z,57.01
2022-12-28T04:46:13.613Z,55.36
2022-12-28T04:48:42.743Z,56.53
2022-12-28T04:51:17.725Z,57.41
2022-12-28T04:53:46.135Z,54.07
2022-12-28T04:56:15.822Z,56.02
2022-12-28T04:58:44.660Z,54.53
2022-12-28T05:01:18.606Z,55.40
2022-12-28T05:03:55.483Z,58.16
2022-12-28T05:06:26.644Z,54.15
2022-12-28T05:08:56.177Z,54.68
2022-12-28T05:11:28.893Z,55.17
2022-12-28T05:13:58.109Z,54.21
2022-12-28T05:16:28.809Z,52.80
2022-12-28T05:18:58.535Z,51.50
2022-12-28T05:21:29.056Z,53.08
2022-12-28T05:23:57.849Z,53.86
2022-12-28T05:26:29.779Z,50.09
2022-12-28T05:28:59.600Z,51.39
2022-12-28T05:31:28.547Z,52.77
2022-12-28T05:33:56.905Z,53.26
2022-12-28T05:36:29.436Z,51.32
2022-12-28T05:38:58.035Z,50.18
2022-12-28T05:41:29.927Z,49.70
2022-12-28T05:44:00.159Z,53.50
2022-12-28T05:46:31.500Z,50.45
2022-12-28T05:49:00.283Z,53.18
2022-12-28T05:51:31.489Z,48.49
2022-12-28T05:54:01.091Z,48.95
2022-12-28T05:56:31.346Z,47.00
2022-12-28T05:59:07.975Z,49.70
2022-12-28T06:01:39.914Z,48.80
2022-12-28T06:04:14.740Z,51.29
2022-12-28T06:06:43.565Z,48.24
2022-12-28T06:09:12.056Z,49.96
2022-12-28T06:11:40.636Z,49.81
2022-12-28T06:14:09.300Z,48.02
2022-12-28T06:16:40.718Z,48.28
2022-12-28T06:19:13.076Z,49.10
2022-12-28T06:21:42.669Z,47.42
2022-12-28T06:24:12.744Z,46.31
2022-12-28T06:26:42.242Z,48.14
2022-12-28T06:29:11.237Z,49.76
2022-12-28T06:31:42.378Z,48.59
2022-12-28T06:34:11.307Z,46.12
2022-12-28T06:36:42.306Z,48.56
2022-12-28T06:39:13.594Z,45.12
2022-12-28T06:41:42.998Z,47.33
2022-12-28T06:44:13.608Z,48.50
2022-12-28T06:46:42.155Z,42.98
2022-12-28T06:49:10.724Z,45.73
2022-12-28T06:51:42.523Z,43.87
2022-12-28T06:54:12.336Z,44.77
2022-12-28T06:56:41.299Z,43.46
2022-12-28T06:59:09.763Z,44.73
2022-12-28T07:01:45.421Z,44.33
2022-12-28T07:04:13.890Z,41.41
2022-12-28T07:06:44.768Z,43.59
2022-12-28T07:09:16.454Z,41.99
2022-12-28T07:11:46.098Z,42.46
2022-12-28T07:14:14.580Z,44.94
2022-12-28T07:16:43.166Z,43.92
2022-12-28T07:19:11.524Z,42.33
2022-12-28T07:21:40.926Z,42.88
2022-12-28T07:24:09.887Z,45.30
2022-12-28T07:26:39.061Z,44.65
2022-12-28T07:29:08.921Z,45.50
2022-12-28T07:31:45.440Z,43.85
2022-12-28T07:34:16.457Z,42.88
2022-12-28T07:36:44.957Z,44.96
2022-12-28T07:39:13.510Z,39.42
2022-12-28T07:41:41.930Z,44.32
2022-12-28T07:44:10.267Z,42.45
2022-12-28T07:46:39.486Z,41.57
2022-12-28T07:49:08.701Z,42.70
2022-12-28T07:51:39.087Z,41.85
2022-12-28T07:54:08.263Z,43.32
2022-12-28T07:59:05.757Z,42.95
2022-12-28T08:01:36.273Z,44.73
2022-12-28T08:04:08.000Z,45.74
2022-12-28T08:06:39.658Z,44.69
2022-12-28T08:09:09.778Z,42.84
2022-12-28T08:11:40.893Z,40.69
2022-12-28T08:14:10.198Z,41.68
2022-12-28T08:16:44.627Z,39.42
2022-12-28T08:19:13.906Z,41.22
2022-12-28T08:21:46.367Z,38.10
2022-12-28T08:24:18.644Z,41.09
2022-12-28T08:26:48.589Z,41.40
2022-12-28T08:29:20.360Z,41.29
2022-12-28T08:31:49.722Z,40.53
2022-12-28T08:34:28.018Z,39.75
2022-12-28T08:36:57.351Z,41.05
2022-12-28T08:39:25.702Z,39.91
2022-12-28T08:41:54.070Z,40.28
2022-12-28T08:44:22.425Z,40.57
2022-12-28T08:46:50.889Z,40.68
2022-12-28T08:49:19.253Z,42.02
2022-12-28T08:51:47.613Z,42.19
2022-12-28T08:54:15.980Z,43.70
2022-12-28T08:56:46.070Z,42.62
2022-12-28T08:59:19.632Z,41.52
2022-12-28T09:01:49.414Z,39.83
2022-12-28T09:04:23.348Z,41.20
2022-12-28T09:06:51.805Z,42.44
2022-12-28T09:09:21.970Z,41.49
2022-12-28T09:11:51.171Z,41.96
2022-12-28T09:14:23.577Z,43.74
2022-12-28T09:16:54.711Z,43.44
2022-12-28T09:19:24.205Z,42.94
2022-12-28T09:21:54.061Z,41.62
2022-12-28T09:24:36.842Z,40.07
2022-12-28T09:27:05.181Z,42.12
2022-12-28T09:29:33.463Z,42.37
2022-12-28T09:32:02.482Z,39.75
2022-12-28T09:34:38.504Z,41.79
2022-12-28T09:37:08.785Z,39.84
2022-12-28T09:39:37.602Z,41.61
2022-12-28T09:42:24.983Z,41.33
2022-12-28T09:45:03.985Z,42.60
2022-12-28T09:47:48.235Z,42.47
2022-12-28T09:50:26.686Z,41.80
2022-12-28T09:53:18.314Z,44.29
2022-12-28T09:56:28.130Z,42.00
2022-12-28T09:58:57.343Z,41.99
2022-12-28T10:01:27.943Z,43.64
2022-12-28T10:03:58.029Z,42.90
2022-12-28T10:06:29.064Z,42.63
2022-12-28T10:09:03.382Z,42.15
2022-12-28T10:11:38.218Z,42.57
2022-12-28T10:14:21.475Z,43.21
2022-12-28T10:16:50.047Z,43.01
2022-12-28T10:19:25.721Z,43.84
2022-12-28T10:22:09.031Z,44.78
2022-12-28T10:24:40.123Z,45.11
2022-12-28T10:27:13.773Z,44.97
2022-12-28T10:29:44.115Z,44.91
2022-12-28T10:32:15.191Z,45.37
2022-12-28T10:34:59.961Z,45.63
2022-12-28T10:37:36.027Z,46.30
2022-12-28T10:40:10.966Z,47.73
2022-12-28T10:42:47.631Z,47.52
2022-12-28T10:45:22.761Z,48.00
2022-12-28T10:47:56.960Z,48.69
2022-12-28T10:50:47.425Z,48.40
2022-12-28T10:53:27.418Z,47.91
2022-12-28T10:56:28.815Z,47.89
2022-12-28T10:59:12.343Z,48.93
2022-12-28T11:01:43.131Z,50.07
2022-12-28T11:04:25.960Z,52.50
2022-12-28T11:07:02.839Z,54.11
2022-12-28T11:09:34.533Z,54.91
2022-12-28T11:12:42.757Z,55.94
2022-12-28T11:15:19.147Z,56.08
2022-12-28T11:20:42.689Z,55.97
2022-12-28T11:23:24.243Z,55.60
2022-12-28T11:25:53.180Z,57.21
2022-12-28T11:28:23.876Z,59.04
2022-12-28T11:30:53.837Z,59.68
2022-12-28T11:33:43.361Z,60.47
2022-12-28T11:36:26.710Z,59.63
2022-12-28T11:38:57.499Z,60.29
2022-12-28T11:41:30.333Z,58.63
2022-12-28T11:44:09.126Z,58.62
2022-12-28T11:46:39.056Z,58.24
2022-12-28T11:49:30.334Z,59.43
2022-12-28T11:52:17.198Z,59.39
2022-12-28T11:55:00.172Z,60.05
2022-12-28T11:57:42.943Z,62.15
2022-12-28T12:00:23.752Z,62.62
2022-12-28T12:02:58.741Z,62.91
2022-12-28T12:05:39.574Z,64.15
2022-12-28T12:08:16.628Z,63.24
2022-12-28T12:10:49.495Z,61.51
2022-12-28T12:13:27.129Z,63.37
2022-12-28T12:16:09.643Z,63.11
2022-12-28T12:18:56.816Z,63.72
2022-12-28T12:21:31.264Z,62.79
2022-12-28T12:24:11.377Z,63.35
2022-12-28T12:26:47.602Z,62.30
2022-12-28T12:29:18.609Z,64.05
2022-12-28T12:32:05.298Z,63.18
2022-12-28T12:34:51.283Z,65.15
2022-12-28T12:37:44.879Z,65.71
2022-12-28T12:40:43.011Z,64.56
2022-12-28T12:43:32.493Z,64.52
2022-12-28T12:46:22.397Z,65.99
2022-12-28T12:49:18.016Z,65.77
2022-12-28T12:52:00.714Z,67.18
2022-12-28T12:55:16.257Z,65.82
2022-12-28T12:57:47.530Z,65.69
2022-12-28T13:00:25.197Z,64.90
2022-12-28T13:03:11.871Z,67.57
2022-12-28T13:05:47.351Z,64.40
2022-12-28T13:08:33.431Z,65.94
2022-12-28T13:11:01.791Z,66.43
2022-12-28T13:13:34.029Z,65.34
2022-12-28T13:16:06.401Z,65.97
2022-12-28T13:18:50.671Z,66.06
2022-12-28T13:21:32.166Z,67.23
2022-12-28T13:24:06.155Z,68.64
2022-12-28T13:26:35.211Z,69.78
2022-12-28T13:29:09.474Z,70.26
2022-12-28T13:31:43.296Z,70.60
2022-12-28T13:34:14.592Z,70.20
2022-12-28T13:36:50.877Z,69.06
2022-12-28T13:39:21.684Z,68.38
2022-12-28T13:41:59.477Z,68.03
2022-12-28T13:44:30.880Z,68.04
2022-12-28T13:47:08.418Z,67.91
2022-12-28T13:49:46.478Z,67.31
2022-12-28T13:52:21.908Z,67.99
2022-12-28T13:54:54.962Z,67.81
2022-12-28T14:00:19.005Z,68.62
2022-12-28T14:02:49.091Z,68.12
2022-12-28T14:05:20.864Z,68.90
2022-12-28T14:07:51.229Z,69.51
2022-12-28T14:10:21.056Z,72.41
2022-12-28T14:12:51.524Z,73.02
2022-12-28T14:15:21.097Z,73.34
2022-12-28T14:17:51.903Z,72.85
2022-12-28T14:20:20.419Z,72.14
2022-12-28T14:22:48.881Z,71.26
2022-12-28T14:25:19.496Z,70.49
2022-12-28T14:27:57.249Z,70.16
2022-12-28T14:30:58.436Z,70.17
2022-12-28T14:33:29.507Z,70.43
2022-12-28T14:36:07.008Z,70.65
2022-12-28T14:38:51.241Z,70.67
2022-12-28T14:41:32.001Z,71.14
2022-12-28T14:44:04.630Z,71.30
2022-12-28T14:46:36.758Z,71.89
2022-12-28T14:49:28.349Z,71.42
2022-12-28T14:52:17.710Z,71.95
2022-12-28T14:54:48.775Z,72.84
2022-12-28T14:57:44.576Z,72.31
2022-12-28T15:00:24.199Z,71.86
2022-12-28T15:02:53.081Z,71.27
2022-12-28T15:05:45.847Z,69.80
2022-12-28T15:08:14.589Z,70.15
2022-12-28T15:10:50.139Z,69.23
2022-12-28T15:13:19.295Z,72.19
2022-12-28T15:15:58.897Z,74.29
2022-12-28T15:18:29.095Z,75.06
2022-12-28T15:20:58.317Z,75.32
2022-12-28T15:23:26.716Z,74.64
2022-12-28T15:25:55.044Z,75.82
2022-12-28T15:28:26.201Z,75.36
2022-12-28T15:31:05.956Z,75.04
2022-12-28T15:33:36.159Z,75.17
2022-12-28T15:36:17.852Z,74.10
2022-12-28T15:38:47.809Z,75.09
2022-12-28T15:41:35.886Z,74.94
2022-12-28T15:44:05.625Z,74.98
2022-12-28T15:46:34.681Z,74.38
2022-12-28T15:49:04.261Z,73.37
2022-12-28T15:51:32.618Z,72.93
2022-12-28T15:54:01.217Z,72.59
2022-12-28T15:56:32.537Z,73.56
2022-12-28T15:59:02.851Z,70.74
2022-12-28T16:01:33.024Z,71.03
2022-12-28T16:04:03.513Z,72.68
2022-12-28T16:06:37.067Z,70.59
2022-12-28T16:09:07.519Z,69.69
2022-12-28T16:11:35.918Z,69.37
2022-12-28T16:14:09.855Z,68.67
2022-12-28T16:16:40.305Z,71.02
2022-12-28T16:19:09.909Z,70.02
2022-12-28T16:21:38.251Z,70.68
2022-12-28T16:24:07.486Z,71.68
2022-12-28T16:26:36.174Z,71.28
2022-12-28T16:29:04.596Z,71.06
2022-12-28T16:31:35.908Z,71.62
2022-12-28T16:34:16.781Z,72.42
2022-12-28T16:36:47.678Z,72.11
2022-12-28T16:39:18.536Z,72.75
2022-12-28T16:41:46.985Z,73.00
2022-12-28T16:44:20.524Z,73.84
2022-12-28T16:46:50.163Z,73.23
2022-12-28T16:49:19.253Z,74.15
2022-12-28T16:51:48.445Z,75.32
2022-12-28T16:54:22.346Z,76.30
2022-12-28T16:56:51.948Z,76.67
2022-12-28T16:59:26.572Z,77.28
2022-12-28T17:01:56.793Z,77.75
2022-12-28T17:04:25.259Z,78.21
2022-12-28T17:06:54.291Z,78.23
2022-12-28T17:09:22.891Z,78.14
2022-12-28T17:14:38.540Z,79.18
2022-12-28T17:17:08.185Z,79.32
2022-12-28T17:19:37.286Z,79.19
2022-12-28T17:22:06.207Z,79.51
2022-12-28T17:24:34.883Z,80.48
2022-12-28T17:27:07.810Z,80.57
2022-12-28T17:29:38.256Z,80.29
2022-12-28T17:32:07.534Z,80.71
2022-12-28T17:34:35.972Z,80.73
2022-12-28T17:37:04.853Z,81.35
2022-12-28T17:39:39.687Z,82.14
2022-12-28T17:42:09.338Z,81.91
2022-12-28T17:44:37.688Z,81.24
2022-12-28T17:47:06.289Z,81.89
2022-12-28T17:49:34.589Z,80.87
2022-12-28T17:52:02.915Z,81.24
2022-12-28T17:54:31.216Z,81.94
2022-12-28T17:56:59.516Z,82.09
2022-12-28T17:59:27.935Z,82.20
2022-12-28T18:01:56.549Z,82.60
2022-12-28T18:04:25.028Z,83.33
2022-12-28T18:06:53.341Z,83.15
2022-12-28T18:09:27.347Z,82.17
2022-12-28T18:11:56.790Z,82.68
2022-12-28T18:14:25.932Z,82.93
2022-12-28T18:16:55.378Z,82.11
2022-12-28T18:19:23.755Z,82.50
2022-12-28T18:21:52.105Z,83.08
2022-12-28T18:24:21.816Z,82.26
2022-12-28T18:26:50.354Z,82.91
2022-12-28T18:29:18.724Z,82.83
2022-12-28T18:31:47.043Z,82.98
2022-12-28T18:34:15.427Z,83.40
2022-12-28T18:36:44.502Z,83.13
2022-12-28T18:39:12.817Z,83.08
2022-12-28T18:41:41.118Z,83.28
2022-12-28T18:44:09.498Z,83.64
2022-12-28T18:46:38.231Z,83.36
2022-12-28T18:49:06.604Z,83.74
2022-12-28T18:51:35.056Z,83.79
2022-12-28T18:54:03.346Z,84.29
2022-12-28T18:56:31.643Z,84.35
2022-12-28T18:58:59.972Z,84.51
2022-12-28T19:04:18.750Z,85.00
2022-12-28T19:06:47.292Z,84.65
2022-12-28T19:09:15.724Z,84.30
2022-12-28T19:11:44.943Z,84.60
2022-12-28T19:14:15.437Z,84.67
2022-12-28T19:16:45.103Z,85.35
2022-12-28T19:19:14.067Z,85.11
2022-12-28T19:21:43.385Z,84.79
2022-12-28T19:24:16.068Z,84.78
2022-12-28T19:26:45.184Z,84.98
2022-12-28T19:29:15.215Z,85.63
2022-12-28T19:31:44.091Z,85.47
2022-12-28T19:34:12.591Z,85.51
2022-12-28T19:36:40.921Z,86.22
2022-12-28T19:39:09.296Z,86.16
2022-12-28T19:41:37.736Z,86.19
2022-12-28T19:44:06.263Z,85.82
2022-12-28T19:46:34.724Z,85.93
2022-12-28T19:49:04.896Z,86.20
2022-12-28T19:51:33.899Z,86.35
2022-12-28T19:54:02.951Z,86.23
2022-12-28T19:56:32.090Z,86.77
2022-12-28T19:59:05.977Z,86.44
2022-12-28T20:01:36.773Z,86.42
2022-12-28T20:04:12.282Z,86.35
2022-12-28T20:06:42.577Z,86.54
2022-12-28T20:09:11.412Z,86.89
2022-12-28T20:11:39.793Z,87.15
2022-12-28T20:14:08.687Z,87.83
2022-12-28T20:16:37.184Z,86.64
2022-12-28T20:19:09.546Z,87.72
2022-12-28T20:21:39.670Z,87.50
2022-12-28T20:24:08.687Z,87.46
2022-12-28T20:26:37.275Z,87.83
2022-12-28T20:29:06.707Z,87.25
2022-12-28T20:31:35.171Z,87.05
2022-12-28T20:34:03.607Z,87.03
2022-12-28T20:36:34.668Z,87.63
2022-12-28T20:39:04.110Z,88.04
2022-12-28T20:41:52.274Z,88.25
2022-12-28T20:44:29.993Z,88.18
2022-12-28T20:46:59.505Z,87.49
2022-12-28T20:49:29.001Z,87.60
2022-12-28T20:51:57.354Z,86.95
2022-12-28T20:54:26.083Z,87.33
2022-12-28T20:56:56.146Z,87.67
2022-12-28T20:59:26.044Z,87.46
2022-12-28T21:01:55.237Z,87.21
2022-12-28T21:04:25.386Z,86.92
2022-12-28T21:06:55.280Z,87.19
2022-12-28T21:09:23.644Z,87.46
2022-12-28T21:11:52.102Z,87.74
2022-12-28T21:14:20.556Z,87.13
2022-12-28T21:16:49.330Z,87.22
2022-12-28T21:19:17.842Z,87.73
2022-12-28T21:21:46.267Z,87.18
2022-12-28T21:24:14.622Z,87.47
2022-12-28T21:26:42.947Z,87.79
2022-12-28T21:29:11.552Z,87.68
2022-12-28T21:31:40.016Z,87.95
2022-12-28T21:34:08.660Z,87.66
2022-12-28T21:36:37.022Z,88.07
2022-12-28T21:39:05.604Z,88.25
2022-12-28T21:41:52.200Z,88.11
2022-12-28T21:44:25.900Z,87.70
2022-12-28T21:46:55.139Z,87.34
2022-12-28T21:49:23.539Z,87.70
2022-12-28T21:51:52.395Z,87.80
2022-12-28T21:54:22.361Z,87.90
2022-12-28T21:56:56.181Z,88.15
2022-12-28T21:59:26.446Z,88.00
2022-12-28T22:02:13.681Z,88.64
2022-12-28T22:05:21.466Z,88.74
2022-12-28T22:08:10.591Z,88.47
2022-12-28T22:10:57.274Z,88.56
2022-12-28T22:13:25.549Z,88.84
2022-12-28T22:15:53.873Z,89.53
2022-12-28T22:21:14.269Z,88.99
2022-12-28T22:23:42.647Z,89.23
2022-12-28T22:26:11.137Z,89.48
2022-12-28T22:28:39.454Z,89.31
2022-12-28T22:31:08.929Z,89.68
2022-12-28T22:33:37.372Z,89.35
2022-12-28T22:36:20.040Z,89.00
2022-12-28T22:38:48.655Z,89.27
2022-12-28T22:41:17.035Z,88.47
2022-12-28T22:43:49.762Z,89.17
2022-12-28T22:46:18.528Z,89.37
2022-12-28T22:48:47.190Z,88.90
2022-12-28T22:51:17.384Z,89.18
2022-12-28T22:53:45.925Z,90.11
2022-12-28T22:56:20.938Z,89.55
2022-12-28T22:58:49.775Z,89.75
2022-12-28T23:01:20.659Z,89.65
2022-12-28T23:03:49.797Z,89.79
2022-12-28T23:06:20.540Z,89.36
2022-12-28T23:08:49.438Z,89.24
2022-12-28T23:11:37.749Z,89.30
2022-12-28T23:14:28.390Z,89.07
2022-12-28T23:16:56.797Z,89.45
2022-12-28T23:19:43.988Z,88.82
2022-12-28T23:22:37.612Z,89.31
2022-12-28T23:25:25.813Z,88.96
2022-12-28T23:27:54.102Z,89.10
2022-12-28T23:30:23.709Z,88.88
2022-12-28T23:32:53.476Z,87.80
2022-12-28T23:35:23.330Z,88.34
2022-12-28T23:37:51.760Z,88.13
2022-12-28T23:40:22.287Z,88.30
2022-12-28T23:42:51.409Z,88.51
2022-12-28T23:45:20.041Z,87.26
2022-12-28T23:47:48.700Z,88.28
2022-12-28T23:50:18.072Z,88.35
2022-12-28T23:52:46.702Z,88.55
2022-12-28T23:55:15.345Z,88.38
2022-12-28T23:57:43.656Z,89.59
